PHL weather

Philadelphia International Airport
Philadelphia, Pennsylvania, United States

Public forecast

Using degrees Fahrenheit for public forecast. Weather courtesy of forecast.io.

METAR (pilot weather report)

Retrieved 2018/12/13 02:54 UTC (13 minutes ago):

KPHL 130254Z 17003KT 10SM BKN150 OVC220 02/M04 A3024 RMK AO2 SLP239 T00221044 51010 $

TAF (pilot weather forecast)

Forecast is more than 12 hours old.

Retrieved 2018/12/12 00:29 UTC (1 day ago):

TAF KPHL 122326Z 1300/1406 VRB03KT P6SM BKN150 FM130900 VRB03KT P6SM OVC060 FM131500 11005KT P6SM OVC030 FM132100 08005KT P6SM BKN040